Glasgow, United Kingdom

9:57 AM GMT on December 27, 2014 (GMT +0000)
Glasgow | Change Station
CLOSE
Current Station
Airport
Location: Glasgow,
Elevation: 26 ft
Nearby Weather Stations

Elev 26 ft 55.87 °N, 4.43 °W | Updated 7 minutes ago

Mostly Cloudy
Mostly Cloudy
32 °F
Feels Like 29 °F
N
4
Wind Variable Wind from West

Today
High -- | Low -- °F
--% Chance of Precip.
Yesterday
High -- | Low -- °F
Precip. -- in
8:48 AM 3:49 PM
Waxing Crescent, 35% visible
Pressure 29.83 in
Visibility 6.2 miles
Clouds Mostly Cloudy 1300 ft
Windchill 29 °F
Dew Point 32 °F
Humidity 100%
Rainfall 0.00 in
Snow Depth Not available.
UV 0 out of 12
Pollen Not available.
Air Quality Not available.
Flu Activity Not available.
METAR EGPF 270950Z AUTO 26003KT 9999 BKN013 00/00 Q1010

More Conditions Fewer Conditions

Pressure 29.83 in
Visibility 6.2 miles
Clouds Mostly Cloudy 1300 ft
Windchill 29 °F
Dew Point 32 °F
Humidity 100%
Rainfall 0.00 in
Snow Depth Not available.
UV 0 out of 12
Pollen Not available.
Air Quality Not available.
Flu Activity Not available.
METAR EGPF 270950Z AUTO 26003KT 9999 BKN013 00/00 Q1010

More Conditions Fewer Conditions

10-Day Weather Forecast

Almanac

Astronomy

Dec. 27, 2014 Rise Set
Actual Time
Civil Twilight
Nautical Twilight
Astronomical Twilight
Moon
Length of Visible Light
Length of Day
Tomorrow will be .
, % of the Moon is Illuminated

Today's Extremes

Country Highs Country Lows

Community

WunderPhotos

Upload Photos

1,780,869 photos uploaded!

WunderBlogs® & News

Nearby

Air Quality

  Air Quality AQ Index Pollutant
Not available.

Snow Depth

Station Depth Elevation

Earthquake Activity

City Distance Mag. Time & Date
Minimum magnitude displayed is 2.5.

Coastal Water Temperatures

Place Temperature

Nearby Weather Stations